sensor_id;sensor_type;location;lat;lon;timestamp;P1;durP1;ratioP1;P2;durP2;ratioP2
76631;SDS011;65526;48.578;-4.520;2023-02-28T00:00:22;8.43;;;2.78;;
76631;SDS011;65526;48.578;-4.520;2023-02-28T00:02:49;7.70;;;2.03;;
76631;SDS011;65526;48.578;-4.520;2023-02-28T00:05:16;7.80;;;1.98;;
76631;SDS011;65526;48.578;-4.520;2023-02-28T00:07:44;4.13;;;1.48;;
76631;SDS011;65526;48.578;-4.520;2023-02-28T00:10:12;5.75;;;1.80;;
76631;SDS011;65526;48.578;-4.520;2023-02-28T00:12:41;8.25;;;1.85;;
76631;SDS011;65526;48.578;-4.520;2023-02-28T00:15:09;7.38;;;1.65;;
76631;SDS011;65526;48.578;-4.520;2023-02-28T00:17:37;8.77;;;1.58;;
76631;SDS011;65526;48.578;-4.520;2023-02-28T00:20:04;4.10;;;1.60;;
76631;SDS011;65526;48.578;-4.520;2023-02-28T00:22:36;3.33;;;1.40;;
76631;SDS011;65526;48.578;-4.520;2023-02-28T00:25:15;4.38;;;1.55;;
76631;SDS011;65526;48.578;-4.520;2023-02-28T00:27:43;7.90;;;1.35;;
76631;SDS011;65526;48.578;-4.520;2023-02-28T00:30:12;11.52;;;1.83;;
76631;SDS011;65526;48.578;-4.520;2023-02-28T00:32:40;8.27;;;2.33;;
76631;SDS011;65526;48.578;-4.520;2023-02-28T00:35:07;5.50;;;1.58;;
76631;SDS011;65526;48.578;-4.520;2023-02-28T00:37:34;3.60;;;1.10;;
76631;SDS011;65526;48.578;-4.520;2023-02-28T00:40:01;7.32;;;1.30;;
76631;SDS011;65526;48.578;-4.520;2023-02-28T00:42:30;7.80;;;1.30;;
76631;SDS011;65526;48.578;-4.520;2023-02-28T00:44:56;5.13;;;1.10;;
76631;SDS011;65526;48.578;-4.520;2023-02-28T00:47:23;6.10;;;1.23;;
76631;SDS011;65526;48.578;-4.520;2023-02-28T00:49:49;6.40;;;1.55;;
76631;SDS011;65526;48.578;-4.520;2023-02-28T00:52:16;7.50;;;1.83;;
76631;SDS011;65526;48.578;-4.520;2023-02-28T00:54:42;7.10;;;1.95;;
76631;SDS011;65526;48.578;-4.520;2023-02-28T00:57:09;5.13;;;1.10;;
76631;SDS011;65526;48.578;-4.520;2023-02-28T00:59:35;10.15;;;1.33;;
76631;SDS011;65526;48.578;-4.520;2023-02-28T01:02:02;4.53;;;1.33;;
76631;SDS011;65526;48.578;-4.520;2023-02-28T01:04:28;7.13;;;1.70;;
76631;SDS011;65526;48.578;-4.520;2023-02-28T01:06:56;6.72;;;1.33;;
76631;SDS011;65526;48.578;-4.520;2023-02-28T01:09:22;2.83;;;1.00;;
76631;SDS011;65526;48.578;-4.520;2023-02-28T01:11:48;3.83;;;1.23;;
76631;SDS011;65526;48.578;-4.520;2023-02-28T01:14:16;6.78;;;1.73;;
76631;SDS011;65526;48.578;-4.520;2023-02-28T01:19:11;5.43;;;1.50;;
76631;SDS011;65526;48.578;-4.520;2023-02-28T01:21:38;4.53;;;1.20;;
76631;SDS011;65526;48.578;-4.520;2023-02-28T01:24:05;6.05;;;1.38;;
76631;SDS011;65526;48.578;-4.520;2023-02-28T01:26:32;5.72;;;1.45;;
76631;SDS011;65526;48.578;-4.520;2023-02-28T01:28:59;7.80;;;1.75;;
76631;SDS011;65526;48.578;-4.520;2023-02-28T01:31:25;7.03;;;1.48;;
76631;SDS011;65526;48.578;-4.520;2023-02-28T01:33:52;4.40;;;1.05;;
76631;SDS011;65526;48.578;-4.520;2023-02-28T01:36:20;6.68;;;1.65;;
76631;SDS011;65526;48.578;-4.520;2023-02-28T01:38:48;3.85;;;1.20;;
76631;SDS011;65526;48.578;-4.520;2023-02-28T01:41:23;6.53;;;1.15;;
76631;SDS011;65526;48.578;-4.520;2023-02-28T01:43:58;4.65;;;1.30;;
76631;SDS011;65526;48.578;-4.520;2023-02-28T01:46:33;6.90;;;1.13;;
76631;SDS011;65526;48.578;-4.520;2023-02-28T01:49:05;6.80;;;1.13;;
76631;SDS011;65526;48.578;-4.520;2023-02-28T01:54:18;4.28;;;1.00;;
76631;SDS011;65526;48.578;-4.520;2023-02-28T01:56:55;3.90;;;1.23;;
76631;SDS011;65526;48.578;-4.520;2023-02-28T01:59:31;10.05;;;1.60;;
76631;SDS011;65526;48.578;-4.520;2023-02-28T02:02:02;6.78;;;1.27;;
76631;SDS011;65526;48.578;-4.520;2023-02-28T02:04:32;9.27;;;1.48;;
76631;SDS011;65526;48.578;-4.520;2023-02-28T02:07:05;6.30;;;1.52;;
76631;SDS011;65526;48.578;-4.520;2023-02-28T02:09:32;9.45;;;2.20;;
76631;SDS011;65526;48.578;-4.520;2023-02-28T02:11:58;6.57;;;1.75;;
76631;SDS011;65526;48.578;-4.520;2023-02-28T02:17:57;9.32;;;1.60;;
76631;SDS011;65526;48.578;-4.520;2023-02-28T02:37:34;9.27;;;2.47;;
76631;SDS011;65526;48.578;-4.520;2023-02-28T02:40:15;4.35;;;1.58;;
76631;SDS011;65526;48.578;-4.520;2023-02-28T02:48:02;4.88;;;1.42;;
76631;SDS011;65526;48.578;-4.520;2023-02-28T02:50:32;9.23;;;1.50;;
76631;SDS011;65526;48.578;-4.520;2023-02-28T02:53:03;4.20;;;1.73;;
76631;SDS011;65526;48.578;-4.520;2023-02-28T02:55:34;6.18;;;1.30;;
76631;SDS011;65526;48.578;-4.520;2023-02-28T02:58:05;5.03;;;1.55;;
76631;SDS011;65526;48.578;-4.520;2023-02-28T03:00:49;6.10;;;1.40;;
76631;SDS011;65526;48.578;-4.520;2023-02-28T03:03:20;5.38;;;1.27;;
76631;SDS011;65526;48.578;-4.520;2023-02-28T03:05:59;9.32;;;1.38;;
76631;SDS011;65526;48.578;-4.520;2023-02-28T03:08:27;7.28;;;1.30;;
76631;SDS011;65526;48.578;-4.520;2023-02-28T03:10:56;4.03;;;1.20;;
76631;SDS011;65526;48.578;-4.520;2023-02-28T03:28:07;5.57;;;1.48;;
76631;SDS011;65526;48.578;-4.520;2023-02-28T03:33:14;6.40;;;1.50;;
76631;SDS011;65526;48.578;-4.520;2023-02-28T03:35:48;8.23;;;1.73;;
76631;SDS011;65526;48.578;-4.520;2023-02-28T03:40:47;2.95;;;1.10;;
76631;SDS011;65526;48.578;-4.520;2023-02-28T03:43:19;5.38;;;1.20;;
76631;SDS011;65526;48.578;-4.520;2023-02-28T03:45:49;7.03;;;1.30;;
76631;SDS011;65526;48.578;-4.520;2023-02-28T03:48:20;5.70;;;2.03;;
76631;SDS011;65526;48.578;-4.520;2023-02-28T03:50:54;5.20;;;1.00;;
76631;SDS011;65526;48.578;-4.520;2023-02-28T03:55:56;4.95;;;1.40;;
76631;SDS011;65526;48.578;-4.520;2023-02-28T03:59:11;8.20;;;1.08;;
76631;SDS011;65526;48.578;-4.520;2023-02-28T04:01:23;7.82;;;2.08;;
76631;SDS011;65526;48.578;-4.520;2023-02-28T04:03:51;10.07;;;1.75;;
76631;SDS011;65526;48.578;-4.520;2023-02-28T04:06:18;1.85;;;0.80;;
76631;SDS011;65526;48.578;-4.520;2023-02-28T04:08:46;2.95;;;1.10;;
76631;SDS011;65526;48.578;-4.520;2023-02-28T04:11:17;5.57;;;1.17;;
76631;SDS011;65526;48.578;-4.520;2023-02-28T04:13:44;2.85;;;0.93;;
76631;SDS011;65526;48.578;-4.520;2023-02-28T04:16:11;3.60;;;1.05;;
76631;SDS011;65526;48.578;-4.520;2023-02-28T04:18:38;4.40;;;0.93;;
76631;SDS011;65526;48.578;-4.520;2023-02-28T04:21:05;7.18;;;1.00;;
76631;SDS011;65526;48.578;-4.520;2023-02-28T04:23:32;3.75;;;1.42;;
76631;SDS011;65526;48.578;-4.520;2023-02-28T04:25:59;3.97;;;0.90;;
76631;SDS011;65526;48.578;-4.520;2023-02-28T04:28:25;3.35;;;1.20;;
76631;SDS011;65526;48.578;-4.520;2023-02-28T04:30:58;3.25;;;0.88;;
76631;SDS011;65526;48.578;-4.520;2023-02-28T04:33:26;4.68;;;0.65;;
76631;SDS011;65526;48.578;-4.520;2023-02-28T04:36:03;3.53;;;0.88;;
76631;SDS011;65526;48.578;-4.520;2023-02-28T04:38:35;7.53;;;0.98;;
76631;SDS011;65526;48.578;-4.520;2023-02-28T04:41:03;2.40;;;0.60;;
76631;SDS011;65526;48.578;-4.520;2023-02-28T04:43:30;4.72;;;0.75;;
76631;SDS011;65526;48.578;-4.520;2023-02-28T04:45:58;3.95;;;0.68;;
76631;SDS011;65526;48.578;-4.520;2023-02-28T04:48:28;1.33;;;0.63;;
76631;SDS011;65526;48.578;-4.520;2023-02-28T04:51:00;4.65;;;0.68;;
76631;SDS011;65526;48.578;-4.520;2023-02-28T05:26:44;4.10;;;1.13;;
76631;SDS011;65526;48.578;-4.520;2023-02-28T05:29:12;3.58;;;1.15;;
76631;SDS011;65526;48.578;-4.520;2023-02-28T05:31:39;6.28;;;1.42;;
76631;SDS011;65526;48.578;-4.520;2023-02-28T05:34:06;6.95;;;1.10;;
76631;SDS011;65526;48.578;-4.520;2023-02-28T05:36:32;3.58;;;1.13;;
76631;SDS011;65526;48.578;-4.520;2023-02-28T05:38:59;3.42;;;0.90;;
76631;SDS011;65526;48.578;-4.520;2023-02-28T05:41:26;5.95;;;1.10;;
76631;SDS011;65526;48.578;-4.520;2023-02-28T05:43:52;2.70;;;0.90;;
76631;SDS011;65526;48.578;-4.520;2023-02-28T05:46:18;6.32;;;1.00;;
76631;SDS011;65526;48.578;-4.520;2023-02-28T05:48:46;1.42;;;1.00;;
76631;SDS011;65526;48.578;-4.520;2023-02-28T05:51:14;4.35;;;1.02;;
76631;SDS011;65526;48.578;-4.520;2023-02-28T05:53:40;3.42;;;1.23;;
76631;SDS011;65526;48.578;-4.520;2023-02-28T05:56:07;3.28;;;1.35;;
76631;SDS011;65526;48.578;-4.520;2023-02-28T05:58:33;5.50;;;1.73;;
76631;SDS011;65526;48.578;-4.520;2023-02-28T06:01:01;8.82;;;2.70;;
76631;SDS011;65526;48.578;-4.520;2023-02-28T06:03:49;5.78;;;2.60;;
76631;SDS011;65526;48.578;-4.520;2023-02-28T06:06:16;6.22;;;2.58;;
76631;SDS011;65526;48.578;-4.520;2023-02-28T06:08:42;11.57;;;3.63;;
76631;SDS011;65526;48.578;-4.520;2023-02-28T06:11:10;8.43;;;3.50;;
76631;SDS011;65526;48.578;-4.520;2023-02-28T06:13:36;7.30;;;3.17;;
76631;SDS011;65526;48.578;-4.520;2023-02-28T06:16:03;4.95;;;3.15;;
76631;SDS011;65526;48.578;-4.520;2023-02-28T06:18:29;9.80;;;3.85;;
76631;SDS011;65526;48.578;-4.520;2023-02-28T06:20:57;12.80;;;3.22;;
76631;SDS011;65526;48.578;-4.520;2023-02-28T06:23:23;10.55;;;3.92;;
76631;SDS011;65526;48.578;-4.520;2023-02-28T06:25:49;6.70;;;3.63;;
76631;SDS011;65526;48.578;-4.520;2023-02-28T06:28:16;12.18;;;5.07;;
76631;SDS011;65526;48.578;-4.520;2023-02-28T06:30:42;7.05;;;4.07;;
76631;SDS011;65526;48.578;-4.520;2023-02-28T06:33:09;11.45;;;4.13;;
76631;SDS011;65526;48.578;-4.520;2023-02-28T06:35:35;8.88;;;4.50;;
76631;SDS011;65526;48.578;-4.520;2023-02-28T06:38:02;11.68;;;4.43;;
76631;SDS011;65526;48.578;-4.520;2023-02-28T06:40:28;11.48;;;4.45;;
76631;SDS011;65526;48.578;-4.520;2023-02-28T06:42:57;9.52;;;3.70;;
76631;SDS011;65526;48.578;-4.520;2023-02-28T06:45:24;9.35;;;4.35;;
76631;SDS011;65526;48.578;-4.520;2023-02-28T06:47:51;10.48;;;4.85;;
76631;SDS011;65526;48.578;-4.520;2023-02-28T06:50:18;9.73;;;4.40;;
76631;SDS011;65526;48.578;-4.520;2023-02-28T06:52:46;11.38;;;4.20;;
76631;SDS011;65526;48.578;-4.520;2023-02-28T06:55:13;12.20;;;5.13;;
76631;SDS011;65526;48.578;-4.520;2023-02-28T06:57:39;8.25;;;4.30;;
76631;SDS011;65526;48.578;-4.520;2023-02-28T07:00:07;10.63;;;4.13;;
76631;SDS011;65526;48.578;-4.520;2023-02-28T07:02:35;7.90;;;3.85;;
76631;SDS011;65526;48.578;-4.520;2023-02-28T07:05:06;8.32;;;4.68;;
76631;SDS011;65526;48.578;-4.520;2023-02-28T07:07:33;10.30;;;4.80;;
76631;SDS011;65526;48.578;-4.520;2023-02-28T07:10:02;13.52;;;5.00;;
76631;SDS011;65526;48.578;-4.520;2023-02-28T07:12:28;9.05;;;4.95;;
76631;SDS011;65526;48.578;-4.520;2023-02-28T07:14:54;9.48;;;4.57;;
76631;SDS011;65526;48.578;-4.520;2023-02-28T07:17:21;15.88;;;5.60;;
76631;SDS011;65526;48.578;-4.520;2023-02-28T07:19:48;13.75;;;5.32;;
76631;SDS011;65526;48.578;-4.520;2023-02-28T07:22:14;11.40;;;5.70;;
76631;SDS011;65526;48.578;-4.520;2023-02-28T07:24:40;11.35;;;4.95;;
76631;SDS011;65526;48.578;-4.520;2023-02-28T07:27:07;11.52;;;5.13;;
76631;SDS011;65526;48.578;-4.520;2023-02-28T07:29:33;11.15;;;4.97;;
76631;SDS011;65526;48.578;-4.520;2023-02-28T07:32:00;13.50;;;5.15;;
76631;SDS011;65526;48.578;-4.520;2023-02-28T07:34:26;10.00;;;5.20;;
76631;SDS011;65526;48.578;-4.520;2023-02-28T07:36:53;10.68;;;5.07;;
76631;SDS011;65526;48.578;-4.520;2023-02-28T07:39:20;11.30;;;5.30;;
76631;SDS011;65526;48.578;-4.520;2023-02-28T07:41:47;10.35;;;5.47;;
76631;SDS011;65526;48.578;-4.520;2023-02-28T07:44:14;10.13;;;5.60;;
76631;SDS011;65526;48.578;-4.520;2023-02-28T07:46:40;10.52;;;4.90;;
76631;SDS011;65526;48.578;-4.520;2023-02-28T07:49:07;10.68;;;5.72;;
76631;SDS011;65526;48.578;-4.520;2023-02-28T07:51:33;13.85;;;4.90;;
76631;SDS011;65526;48.578;-4.520;2023-02-28T07:53:59;11.88;;;6.15;;
76631;SDS011;65526;48.578;-4.520;2023-02-28T07:56:26;10.10;;;5.38;;
76631;SDS011;65526;48.578;-4.520;2023-02-28T07:58:52;10.45;;;5.40;;
76631;SDS011;65526;48.578;-4.520;2023-02-28T08:01:19;13.00;;;5.63;;
76631;SDS011;65526;48.578;-4.520;2023-02-28T08:03:45;9.75;;;5.57;;
76631;SDS011;65526;48.578;-4.520;2023-02-28T08:06:16;10.15;;;5.43;;
76631;SDS011;65526;48.578;-4.520;2023-02-28T08:08:44;15.77;;;5.82;;
76631;SDS011;65526;48.578;-4.520;2023-02-28T08:11:11;13.20;;;5.68;;
76631;SDS011;65526;48.578;-4.520;2023-02-28T08:13:38;15.27;;;6.30;;
76631;SDS011;65526;48.578;-4.520;2023-02-28T08:16:04;13.50;;;6.10;;
76631;SDS011;65526;48.578;-4.520;2023-02-28T08:18:34;13.20;;;6.30;;
76631;SDS011;65526;48.578;-4.520;2023-02-28T08:21:09;14.00;;;6.78;;
76631;SDS011;65526;48.578;-4.520;2023-02-28T08:24:06;12.63;;;6.35;;
76631;SDS011;65526;48.578;-4.520;2023-02-28T08:26:35;8.57;;;5.47;;
76631;SDS011;65526;48.578;-4.520;2023-02-28T08:29:11;12.00;;;6.70;;
76631;SDS011;65526;48.578;-4.520;2023-02-28T08:32:37;10.02;;;5.95;;
76631;SDS011;65526;48.578;-4.520;2023-02-28T08:35:20;10.38;;;6.00;;
76631;SDS011;65526;48.578;-4.520;2023-02-28T08:38:00;12.10;;;6.15;;
76631;SDS011;65526;48.578;-4.520;2023-02-28T08:40:58;9.63;;;6.47;;
76631;SDS011;65526;48.578;-4.520;2023-02-28T08:43:44;11.88;;;5.97;;
76631;SDS011;65526;48.578;-4.520;2023-02-28T08:46:40;16.33;;;7.30;;
76631;SDS011;65526;48.578;-4.520;2023-02-28T08:49:53;14.38;;;7.00;;
76631;SDS011;65526;48.578;-4.520;2023-02-28T08:55:41;14.18;;;7.43;;
76631;SDS011;65526;48.578;-4.520;2023-02-28T08:58:17;13.20;;;6.90;;
76631;SDS011;65526;48.578;-4.520;2023-02-28T09:04:09;21.20;;;7.85;;
76631;SDS011;65526;48.578;-4.520;2023-02-28T09:06:47;17.35;;;6.95;;
76631;SDS011;65526;48.578;-4.520;2023-02-28T09:09:23;18.23;;;7.13;;
76631;SDS011;65526;48.578;-4.520;2023-02-28T09:12:09;12.50;;;7.40;;
76631;SDS011;65526;48.578;-4.520;2023-02-28T09:14:49;12.13;;;6.68;;
76631;SDS011;65526;48.578;-4.520;2023-02-28T09:17:26;11.90;;;6.90;;
76631;SDS011;65526;48.578;-4.520;2023-02-28T09:20:04;16.30;;;7.03;;
76631;SDS011;65526;48.578;-4.520;2023-02-28T09:23:06;12.80;;;6.95;;
76631;SDS011;65526;48.578;-4.520;2023-02-28T09:26:16;12.45;;;6.75;;
76631;SDS011;65526;48.578;-4.520;2023-02-28T09:28:57;15.10;;;6.40;;
76631;SDS011;65526;48.578;-4.520;2023-02-28T09:32:09;16.13;;;7.63;;
76631;SDS011;65526;48.578;-4.520;2023-02-28T09:35:28;23.77;;;11.93;;
76631;SDS011;65526;48.578;-4.520;2023-02-28T09:38:28;15.65;;;8.50;;
76631;SDS011;65526;48.578;-4.520;2023-02-28T09:41:31;15.60;;;7.55;;
76631;SDS011;65526;48.578;-4.520;2023-02-28T09:47:45;16.38;;;8.27;;
76631;SDS011;65526;48.578;-4.520;2023-02-28T09:53:36;20.27;;;8.73;;
76631;SDS011;65526;48.578;-4.520;2023-02-28T09:56:25;17.40;;;7.68;;
76631;SDS011;65526;48.578;-4.520;2023-02-28T09:59:04;12.85;;;8.25;;
76631;SDS011;65526;48.578;-4.520;2023-02-28T10:01:54;18.00;;;9.05;;
76631;SDS011;65526;48.578;-4.520;2023-02-28T10:04:47;15.05;;;8.27;;
76631;SDS011;65526;48.578;-4.520;2023-02-28T10:10:18;17.27;;;9.02;;
76631;SDS011;65526;48.578;-4.520;2023-02-28T10:12:53;17.98;;;8.07;;
76631;SDS011;65526;48.578;-4.520;2023-02-28T10:15:23;18.20;;;8.63;;
76631;SDS011;65526;48.578;-4.520;2023-02-28T10:17:57;15.85;;;8.25;;
76631;SDS011;65526;48.578;-4.520;2023-02-28T10:20:29;14.98;;;7.55;;
76631;SDS011;65526;48.578;-4.520;2023-02-28T10:25:36;16.42;;;7.80;;
76631;SDS011;65526;48.578;-4.520;2023-02-28T10:30:34;16.48;;;8.07;;
76631;SDS011;65526;48.578;-4.520;2023-02-28T10:33:05;10.27;;;5.82;;
76631;SDS011;65526;48.578;-4.520;2023-02-28T10:35:35;16.33;;;6.80;;
76631;SDS011;65526;48.578;-4.520;2023-02-28T10:38:03;15.18;;;7.38;;
76631;SDS011;65526;48.578;-4.520;2023-02-28T10:40:40;15.68;;;7.03;;
76631;SDS011;65526;48.578;-4.520;2023-02-28T10:45:51;13.20;;;7.00;;
76631;SDS011;65526;48.578;-4.520;2023-02-28T10:53:28;16.60;;;7.55;;
76631;SDS011;65526;48.578;-4.520;2023-02-28T10:56:04;14.80;;;8.20;;
76631;SDS011;65526;48.578;-4.520;2023-02-28T11:01:49;11.65;;;6.03;;
76631;SDS011;65526;48.578;-4.520;2023-02-28T11:04:30;15.43;;;7.00;;
76631;SDS011;65526;48.578;-4.520;2023-02-28T11:07:04;11.40;;;5.55;;
76631;SDS011;65526;48.578;-4.520;2023-02-28T11:09:48;12.98;;;6.47;;
76631;SDS011;65526;48.578;-4.520;2023-02-28T11:12:29;13.68;;;4.70;;
76631;SDS011;65526;48.578;-4.520;2023-02-28T11:17:32;5.03;;;2.28;;
76631;SDS011;65526;48.578;-4.520;2023-02-28T11:20:01;6.03;;;2.15;;
76631;SDS011;65526;48.578;-4.520;2023-02-28T11:22:35;4.43;;;2.20;;
76631;SDS011;65526;48.578;-4.520;2023-02-28T11:25:10;5.53;;;2.20;;
76631;SDS011;65526;48.578;-4.520;2023-02-28T11:27:54;6.18;;;1.88;;
76631;SDS011;65526;48.578;-4.520;2023-02-28T11:32:57;6.43;;;2.38;;
76631;SDS011;65526;48.578;-4.520;2023-02-28T11:38:00;6.85;;;3.17;;
76631;SDS011;65526;48.578;-4.520;2023-02-28T11:48:38;7.50;;;2.70;;
76631;SDS011;65526;48.578;-4.520;2023-02-28T12:00:03;4.30;;;2.00;;
76631;SDS011;65526;48.578;-4.520;2023-02-28T12:02:55;5.97;;;2.65;;
76631;SDS011;65526;48.578;-4.520;2023-02-28T12:05:53;7.57;;;2.95;;
76631;SDS011;65526;48.578;-4.520;2023-02-28T12:11:31;6.53;;;2.85;;
76631;SDS011;65526;48.578;-4.520;2023-02-28T12:14:30;8.27;;;3.08;;
76631;SDS011;65526;48.578;-4.520;2023-02-28T12:17:27;13.90;;;3.35;;
76631;SDS011;65526;48.578;-4.520;2023-02-28T12:23:14;6.38;;;1.60;;
76631;SDS011;65526;48.578;-4.520;2023-02-28T12:29:04;11.95;;;2.08;;
76631;SDS011;65526;48.578;-4.520;2023-02-28T12:35:01;3.38;;;1.27;;
76631;SDS011;65526;48.578;-4.520;2023-02-28T12:38:19;6.38;;;1.60;;
76631;SDS011;65526;48.578;-4.520;2023-02-28T12:41:14;7.35;;;1.55;;
76631;SDS011;65526;48.578;-4.520;2023-02-28T12:43:28;4.22;;;1.42;;
76631;SDS011;65526;48.578;-4.520;2023-02-28T12:46:24;2.83;;;1.20;;
76631;SDS011;65526;48.578;-4.520;2023-02-28T12:49:19;4.70;;;1.40;;
76631;SDS011;65526;48.578;-4.520;2023-02-28T12:52:00;6.50;;;1.33;;
76631;SDS011;65526;48.578;-4.520;2023-02-28T12:54:44;4.50;;;1.38;;
76631;SDS011;65526;48.578;-4.520;2023-02-28T13:00:18;2.75;;;1.00;;
76631;SDS011;65526;48.578;-4.520;2023-02-28T13:06:01;4.70;;;0.80;;
76631;SDS011;65526;48.578;-4.520;2023-02-28T13:11:22;5.47;;;1.17;;
76631;SDS011;65526;48.578;-4.520;2023-02-28T13:13:57;2.90;;;1.10;;
76631;SDS011;65526;48.578;-4.520;2023-02-28T13:16:25;2.47;;;0.90;;
76631;SDS011;65526;48.578;-4.520;2023-02-28T13:18:51;4.93;;;0.90;;
76631;SDS011;65526;48.578;-4.520;2023-02-28T13:21:28;4.53;;;0.68;;
76631;SDS011;65526;48.578;-4.520;2023-02-28T13:23:58;5.10;;;0.70;;
76631;SDS011;65526;48.578;-4.520;2023-02-28T13:37:37;7.30;;;1.02;;
76631;SDS011;65526;48.578;-4.520;2023-02-28T13:42:56;4.75;;;0.88;;
76631;SDS011;65526;48.578;-4.520;2023-02-28T15:08:15;4.35;;;0.95;;
76631;SDS011;65526;48.578;-4.520;2023-02-28T15:11:03;7.93;;;1.42;;
76631;SDS011;65526;48.578;-4.520;2023-02-28T15:13:39;2.38;;;0.88;;
76631;SDS011;65526;48.578;-4.520;2023-02-28T15:16:16;2.20;;;0.50;;
76631;SDS011;65526;48.578;-4.520;2023-02-28T15:21:25;4.13;;;0.55;;
76631;SDS011;65526;48.578;-4.520;2023-02-28T16:17:41;5.10;;;0.80;;
76631;SDS011;65526;48.578;-4.520;2023-02-28T18:07:57;5.20;;;0.80;;
76631;SDS011;65526;48.578;-4.520;2023-02-28T18:10:26;3.10;;;0.73;;
76631;SDS011;65526;48.578;-4.520;2023-02-28T19:19:00;3.78;;;1.80;;
76631;SDS011;65526;48.578;-4.520;2023-02-28T19:21:26;7.03;;;1.95;;
76631;SDS011;65526;48.578;-4.520;2023-02-28T19:23:52;4.93;;;1.60;;
76631;SDS011;65526;48.578;-4.520;2023-02-28T20:09:31;7.43;;;3.35;;
76631;SDS011;65526;48.578;-4.520;2023-02-28T21:01:43;4.28;;;2.10;;
76631;SDS011;65526;48.578;-4.520;2023-02-28T21:05:00;5.50;;;2.00;;
76631;SDS011;65526;48.578;-4.520;2023-02-28T21:07:30;5.50;;;2.30;;
76631;SDS011;65526;48.578;-4.520;2023-02-28T21:09:58;8.88;;;2.40;;
76631;SDS011;65526;48.578;-4.520;2023-02-28T21:12:25;4.80;;;2.40;;
76631;SDS011;65526;48.578;-4.520;2023-02-28T23:28:55;2.78;;;1.40;;
76631;SDS011;65526;48.578;-4.520;2023-02-28T23:31:25;1.73;;;1.15;;
76631;SDS011;65526;48.578;-4.520;2023-02-28T23:33:52;2.58;;;1.30;;
76631;SDS011;65526;48.578;-4.520;2023-02-28T23:36:22;1.25;;;1.10;;
76631;SDS011;65526;48.578;-4.520;2023-02-28T23:38:49;2.65;;;1.08;;
76631;SDS011;65526;48.578;-4.520;2023-02-28T23:41:17;1.02;;;0.63;;
76631;SDS011;65526;48.578;-4.520;2023-02-28T23:43:45;3.42;;;1.23;;
76631;SDS011;65526;48.578;-4.520;2023-02-28T23:46:12;1.65;;;1.02;;
76631;SDS011;65526;48.578;-4.520;2023-02-28T23:48:39;2.80;;;0.90;;
76631;SDS011;65526;48.578;-4.520;2023-02-28T23:51:11;3.42;;;0.80;;
76631;SDS011;65526;48.578;-4.520;2023-02-28T23:53:42;2.60;;;1.02;;
76631;SDS011;65526;48.578;-4.520;2023-02-28T23:56:11;4.30;;;1.30;;
76631;SDS011;65526;48.578;-4.520;2023-02-28T23:58:43;1.50;;;1.17;;
